createdAt,value
2022-10-20T00:01:38.989Z,59.49
2022-10-20T00:04:05.394Z,59.60
2022-10-20T00:06:33.205Z,59.68
2022-10-20T00:09:01.906Z,59.72
2022-10-20T00:11:29.067Z,59.76
2022-10-20T00:13:56.889Z,59.98
2022-10-20T00:16:25.112Z,60.05
2022-10-20T00:18:52.174Z,60.01
2022-10-20T00:21:21.842Z,59.84
2022-10-20T00:23:48.446Z,59.80
2022-10-20T00:26:24.228Z,60.09
2022-10-20T00:28:51.193Z,60.02
2022-10-20T00:31:19.628Z,59.90
2022-10-20T00:33:46.843Z,59.92
2022-10-20T00:36:16.015Z,59.79
2022-10-20T00:38:43.031Z,60.05
2022-10-20T00:41:15.459Z,60.17
2022-10-20T00:43:49.482Z,59.94
2022-10-20T00:46:19.650Z,59.98
2022-10-20T00:48:50.014Z,59.69
2022-10-20T00:51:20.026Z,59.83
2022-10-20T00:53:48.711Z,59.79
2022-10-20T00:56:15.246Z,59.94
2022-10-20T00:58:43.147Z,59.83
2022-10-20T01:01:12.262Z,60.00
2022-10-20T01:03:46.621Z,59.61
2022-10-20T01:06:18.535Z,59.89
2022-10-20T01:08:45.109Z,60.15
2022-10-20T01:11:45.236Z,59.92
2022-10-20T01:14:36.416Z,60.03
2022-10-20T01:17:09.873Z,59.74
2022-10-20T01:20:20.739Z,59.70
2022-10-20T01:23:02.338Z,60.11
2022-10-20T01:25:56.637Z,59.88
2022-10-20T01:28:26.767Z,60.02
2022-10-20T01:31:01.411Z,59.78
2022-10-20T01:33:41.772Z,60.09
2022-10-20T01:36:15.818Z,60.18
2022-10-20T01:38:53.446Z,60.12
2022-10-20T01:41:42.831Z,60.23
2022-10-20T01:44:14.479Z,60.09
2022-10-20T01:46:43.053Z,60.47
2022-10-20T01:49:10.827Z,60.52
2022-10-20T01:51:37.215Z,60.61
2022-10-20T01:54:03.680Z,60.52
2022-10-20T01:56:42.624Z,60.64
2022-10-20T01:59:27.875Z,60.37
2022-10-20T02:02:15.963Z,60.31
2022-10-20T02:04:58.663Z,60.16
2022-10-20T02:07:29.210Z,60.22
2022-10-20T02:10:19.026Z,60.36
2022-10-20T02:12:50.366Z,60.23
2022-10-20T02:15:24.101Z,60.33
2022-10-20T02:17:58.746Z,60.31
2022-10-20T02:20:26.265Z,60.47
2022-10-20T02:22:53.998Z,60.38
2022-10-20T02:25:21.890Z,60.47
2022-10-20T02:27:49.045Z,60.46
2022-10-20T02:30:18.404Z,60.53
2022-10-20T02:32:52.580Z,60.62
2022-10-20T02:35:29.210Z,60.45
2022-10-20T02:37:56.771Z,60.71
2022-10-20T02:40:23.124Z,60.36
2022-10-20T02:42:49.723Z,60.15
2022-10-20T02:45:16.198Z,60.38
2022-10-20T02:47:42.990Z,60.29
2022-10-20T02:50:09.692Z,60.43
2022-10-20T02:52:36.676Z,60.47
2022-10-20T02:55:04.664Z,60.34
2022-10-20T02:57:31.186Z,60.22
2022-10-20T02:59:57.510Z,60.36
2022-10-20T03:02:23.922Z,60.53
2022-10-20T03:04:50.258Z,60.88
2022-10-20T03:07:16.686Z,60.33
2022-10-20T03:09:44.125Z,60.54
2022-10-20T03:12:10.439Z,60.66
2022-10-20T03:14:36.818Z,60.50
2022-10-20T03:17:03.174Z,60.74
2022-10-20T03:19:29.599Z,60.89
2022-10-20T03:21:55.918Z,60.88
2022-10-20T03:24:22.242Z,60.91
2022-10-20T03:26:48.610Z,60.81
2022-10-20T03:29:14.942Z,60.91
2022-10-20T03:31:41.424Z,60.89
2022-10-20T03:34:08.063Z,60.78
2022-10-20T03:36:34.424Z,60.59
2022-10-20T03:39:00.733Z,60.28
2022-10-20T03:41:27.069Z,60.50
2022-10-20T03:43:53.524Z,60.32
2022-10-20T03:46:19.867Z,60.56
2022-10-20T03:48:46.175Z,60.34
2022-10-20T03:51:14.289Z,60.48
2022-10-20T03:53:40.662Z,60.41
2022-10-20T03:56:08.753Z,60.18
2022-10-20T03:58:35.741Z,60.46
2022-10-20T04:01:03.167Z,60.32
2022-10-20T04:03:29.507Z,60.24
2022-10-20T04:05:55.843Z,60.12
2022-10-20T04:08:22.192Z,60.33
2022-10-20T04:10:48.514Z,60.17
2022-10-20T04:13:14.834Z,60.24
2022-10-20T04:15:41.243Z,60.18
2022-10-20T04:18:07.568Z,60.23
2022-10-20T04:20:33.909Z,60.45
2022-10-20T04:23:00.326Z,60.35
2022-10-20T04:25:26.689Z,60.46
2022-10-20T04:27:53.030Z,60.48
2022-10-20T04:30:19.440Z,60.30
2022-10-20T04:32:45.763Z,60.36
2022-10-20T04:35:12.157Z,60.49
2022-10-20T04:37:38.780Z,60.64
2022-10-20T04:40:06.199Z,60.52
2022-10-20T04:42:32.511Z,60.26
2022-10-20T04:44:58.867Z,60.45
2022-10-20T04:47:25.295Z,60.17
2022-10-20T04:49:51.636Z,60.20
2022-10-20T04:52:18.230Z,60.09
2022-10-20T04:54:44.589Z,60.21
2022-10-20T04:57:11.159Z,60.34
2022-10-20T04:59:37.477Z,60.34
2022-10-20T05:02:03.883Z,59.98
2022-10-20T05:04:30.266Z,60.07
2022-10-20T05:06:56.611Z,59.96
2022-10-20T05:09:23.054Z,59.96
2022-10-20T05:11:49.391Z,60.15
2022-10-20T05:14:15.715Z,59.95
2022-10-20T05:16:42.117Z,60.09
2022-10-20T05:19:10.414Z,59.96
2022-10-20T05:21:37.118Z,59.64
2022-10-20T05:24:05.517Z,60.17
2022-10-20T05:26:36.912Z,59.54
2022-10-20T05:29:05.873Z,59.49
2022-10-20T05:31:40.128Z,59.41
2022-10-20T05:34:07.166Z,59.58
2022-10-20T05:36:33.598Z,59.55
2022-10-20T05:39:00.179Z,59.66
2022-10-20T05:41:29.796Z,59.26
2022-10-20T05:44:00.754Z,59.58
2022-10-20T05:46:29.275Z,59.37
2022-10-20T05:48:58.983Z,59.48
2022-10-20T05:51:27.917Z,59.37
2022-10-20T05:53:58.890Z,59.28
2022-10-20T05:56:26.967Z,59.04
2022-10-20T05:58:53.822Z,59.19
2022-10-20T06:01:23.993Z,58.97
2022-10-20T06:03:55.674Z,58.90
2022-10-20T06:06:25.374Z,59.00
2022-10-20T06:08:52.259Z,58.94
2022-10-20T06:11:19.402Z,58.78
2022-10-20T06:13:48.484Z,58.76
2022-10-20T06:16:21.303Z,58.51
2022-10-20T06:18:48.071Z,58.63
2022-10-20T06:21:20.072Z,58.67
2022-10-20T06:23:46.419Z,58.33
2022-10-20T06:26:17.557Z,58.17
2022-10-20T06:28:45.523Z,58.28
2022-10-20T06:31:14.321Z,58.26
2022-10-20T06:33:41.103Z,58.02
2022-10-20T06:36:08.805Z,57.92
2022-10-20T06:38:35.523Z,57.95
2022-10-20T06:41:06.532Z,58.23
2022-10-20T06:43:33.252Z,58.02
2022-10-20T06:46:01.844Z,58.06
2022-10-20T06:48:29.063Z,57.85
2022-10-20T06:51:00.422Z,57.90
2022-10-20T06:53:29.286Z,57.76
2022-10-20T06:56:08.076Z,57.65
2022-10-20T07:01:37.171Z,57.48
2022-10-20T07:04:07.393Z,57.52
2022-10-20T07:06:45.135Z,57.40
2022-10-20T07:09:15.019Z,57.51
2022-10-20T07:11:41.838Z,57.10
2022-10-20T07:14:10.203Z,57.21
2022-10-20T07:16:36.718Z,56.93
2022-10-20T07:19:04.457Z,57.21
2022-10-20T07:21:35.666Z,56.73
2022-10-20T07:24:06.537Z,56.92
2022-10-20T07:26:35.758Z,56.64
2022-10-20T07:29:12.939Z,56.63
2022-10-20T07:31:47.389Z,56.50
2022-10-20T07:34:31.741Z,56.31
2022-10-20T07:36:58.298Z,56.32
2022-10-20T07:39:30.689Z,56.23
2022-10-20T07:41:57.034Z,56.06
2022-10-20T07:44:24.162Z,56.06
2022-10-20T07:46:50.549Z,56.03
2022-10-20T07:52:03.339Z,56.19
2022-10-20T07:54:30.421Z,55.92
2022-10-20T07:56:56.762Z,55.73
2022-10-20T07:59:24.289Z,55.82
2022-10-20T08:01:52.577Z,55.62
2022-10-20T08:04:21.052Z,56.02
2022-10-20T08:06:47.412Z,55.96
2022-10-20T08:09:13.775Z,55.83
2022-10-20T08:11:40.120Z,55.88
2022-10-20T08:14:06.640Z,56.01
2022-10-20T08:16:48.122Z,55.95
2022-10-20T08:19:23.060Z,55.83
2022-10-20T08:21:49.415Z,55.89
2022-10-20T08:24:15.910Z,55.66
2022-10-20T08:26:42.253Z,55.75
2022-10-20T08:29:09.057Z,55.45
2022-10-20T08:31:35.431Z,55.57
2022-10-20T08:34:01.931Z,55.54
2022-10-20T08:36:28.452Z,55.49
2022-10-20T08:38:56.319Z,55.43
2022-10-20T08:41:34.517Z,55.72
2022-10-20T08:44:03.720Z,55.58
2022-10-20T08:46:38.118Z,55.27
2022-10-20T08:49:07.691Z,55.23
2022-10-20T08:51:39.333Z,55.28
2022-10-20T08:54:12.665Z,55.36
2022-10-20T08:56:39.020Z,55.27
2022-10-20T08:59:22.491Z,55.20
2022-10-20T09:01:48.907Z,55.31
2022-10-20T09:04:18.306Z,55.59
2022-10-20T09:06:47.913Z,55.26
2022-10-20T09:09:17.874Z,55.15
2022-10-20T09:11:44.482Z,55.19
2022-10-20T09:14:12.236Z,55.13
2022-10-20T09:16:58.670Z,55.30
2022-10-20T09:19:27.124Z,55.46
2022-10-20T09:21:56.028Z,55.33
2022-10-20T09:24:24.243Z,55.52
2022-10-20T09:26:59.301Z,55.33
2022-10-20T09:29:37.770Z,55.44
2022-10-20T09:32:44.938Z,55.61
2022-10-20T09:35:12.086Z,55.61
2022-10-20T09:37:38.704Z,55.55
2022-10-20T09:40:15.199Z,55.48
2022-10-20T09:42:49.183Z,55.56
2022-10-20T09:45:15.448Z,55.26
2022-10-20T09:47:48.513Z,55.11
2022-10-20T09:50:28.971Z,55.23
2022-10-20T09:52:56.418Z,55.01
2022-10-20T09:55:25.678Z,54.69
2022-10-20T09:57:54.278Z,54.89
2022-10-20T10:00:45.986Z,54.94
2022-10-20T10:03:22.593Z,54.60
2022-10-20T10:06:00.125Z,54.42
2022-10-20T10:08:30.370Z,54.39
2022-10-20T10:11:03.224Z,54.29
2022-10-20T10:13:43.484Z,54.43
2022-10-20T10:16:14.106Z,54.37
2022-10-20T10:18:46.859Z,54.00
2022-10-20T10:21:17.342Z,53.94
2022-10-20T10:23:53.658Z,53.87
2022-10-20T10:26:33.635Z,53.48
2022-10-20T10:28:59.992Z,53.36
2022-10-20T10:31:27.316Z,52.90
2022-10-20T10:34:02.475Z,52.71
2022-10-20T10:36:34.420Z,52.55
2022-10-20T10:39:04.338Z,52.28
2022-10-20T10:41:47.112Z,52.00
2022-10-20T10:44:29.236Z,52.12
2022-10-20T10:47:16.946Z,51.94
2022-10-20T10:49:52.460Z,51.97
2022-10-20T10:52:29.518Z,51.78
2022-10-20T10:55:43.754Z,51.77
2022-10-20T10:58:27.509Z,51.21
2022-10-20T11:01:18.718Z,51.31
2022-10-20T11:04:29.602Z,51.28
2022-10-20T11:07:14.132Z,51.08
2022-10-20T11:09:52.618Z,50.94
2022-10-20T11:12:40.865Z,51.20
2022-10-20T11:15:28.898Z,51.29
2022-10-20T11:18:32.774Z,51.36
2022-10-20T11:21:21.747Z,51.10
2022-10-20T11:24:03.274Z,50.77
2022-10-20T11:26:34.877Z,50.64
2022-10-20T11:29:04.763Z,50.89
2022-10-20T11:31:57.277Z,50.81
2022-10-20T11:35:01.512Z,51.06
2022-10-20T11:37:41.641Z,50.80
2022-10-20T11:40:11.210Z,50.93
2022-10-20T11:42:43.499Z,50.58
2022-10-20T11:45:35.597Z,50.64
2022-10-20T11:48:11.275Z,50.60
2022-10-20T11:50:39.018Z,50.49
2022-10-20T11:53:29.551Z,50.68
2022-10-20T11:56:27.155Z,50.75
2022-10-20T11:59:02.706Z,50.31
2022-10-20T12:01:41.485Z,51.10
2022-10-20T12:04:37.921Z,50.95
2022-10-20T12:07:28.926Z,50.65
2022-10-20T12:10:14.146Z,50.57
2022-10-20T12:13:14.855Z,50.71
2022-10-20T12:15:52.786Z,50.28
2022-10-20T12:18:25.124Z,50.15
2022-10-20T12:20:59.773Z,50.46
2022-10-20T12:23:49.278Z,50.53
2022-10-20T12:26:32.939Z,51.02
2022-10-20T12:29:31.083Z,51.19
2022-10-20T12:32:24.319Z,51.24
2022-10-20T12:35:10.914Z,51.40
2022-10-20T12:37:42.108Z,51.21
2022-10-20T12:40:14.048Z,51.56
2022-10-20T12:42:47.901Z,51.74
2022-10-20T12:45:20.450Z,51.75
2022-10-20T12:47:50.860Z,52.00
2022-10-20T12:50:38.087Z,52.36
2022-10-20T12:53:18.647Z,52.29
2022-10-20T12:55:53.503Z,52.87
2022-10-20T12:58:19.785Z,52.92
2022-10-20T13:00:46.100Z,53.23
2022-10-20T13:03:31.363Z,53.34
2022-10-20T13:06:02.415Z,53.80
2022-10-20T13:08:35.134Z,53.78
2022-10-20T13:11:35.848Z,54.14
2022-10-20T13:14:28.360Z,54.65
2022-10-20T13:17:05.988Z,54.85
2022-10-20T13:19:50.018Z,55.19
2022-10-20T13:22:40.827Z,55.04
2022-10-20T13:25:16.846Z,55.03
2022-10-20T13:27:43.401Z,54.76
2022-10-20T13:30:10.930Z,55.34
2022-10-20T13:36:08.078Z,55.64
2022-10-20T13:38:52.930Z,55.89
2022-10-20T13:41:38.456Z,56.01
2022-10-20T13:44:23.251Z,55.83
2022-10-20T13:46:50.767Z,56.12
2022-10-20T13:49:55.290Z,55.89
2022-10-20T13:52:21.898Z,56.14
2022-10-20T13:55:03.414Z,56.16
2022-10-20T13:57:33.433Z,56.02
2022-10-20T14:00:04.356Z,56.26
2022-10-20T14:02:34.417Z,56.43
2022-10-20T14:05:07.918Z,56.30
2022-10-20T14:07:42.837Z,56.31
2022-10-20T14:10:32.942Z,56.50
2022-10-20T14:13:01.219Z,56.17
2022-10-20T14:15:31.910Z,56.57
2022-10-20T14:18:04.901Z,56.62
2022-10-20T14:20:33.939Z,56.66
2022-10-20T14:23:02.153Z,57.08
2022-10-20T14:25:31.478Z,57.24
2022-10-20T14:27:59.158Z,57.59
2022-10-20T14:30:26.555Z,57.55
2022-10-20T14:32:54.351Z,57.55
2022-10-20T14:35:39.200Z,57.76
2022-10-20T14:38:15.526Z,58.01
2022-10-20T14:40:48.586Z,58.08
2022-10-20T14:43:18.400Z,58.41
2022-10-20T14:46:03.404Z,58.43
2022-10-20T14:48:37.999Z,58.61
2022-10-20T14:51:32.203Z,58.58
2022-10-20T14:54:20.584Z,58.50
2022-10-20T14:56:55.839Z,58.71
2022-10-20T14:59:24.860Z,59.16
2022-10-20T15:02:01.755Z,58.97
2022-10-20T15:04:32.126Z,59.40
2022-10-20T15:07:25.457Z,59.11
2022-10-20T15:10:06.007Z,59.05
2022-10-20T15:12:42.756Z,58.79
2022-10-20T15:15:12.146Z,58.90
2022-10-20T15:17:51.760Z,58.63
2022-10-20T15:20:30.453Z,58.59
2022-10-20T15:22:58.376Z,58.99
2022-10-20T15:25:26.863Z,58.91
2022-10-20T15:27:54.890Z,59.31
2022-10-20T15:30:23.570Z,59.31
2022-10-20T15:32:50.454Z,59.25
2022-10-20T15:35:20.196Z,59.36
2022-10-20T15:37:52.579Z,59.58
2022-10-20T15:40:21.291Z,59.12
2022-10-20T15:42:48.716Z,59.67
2022-10-20T15:45:21.317Z,59.63
2022-10-20T15:47:48.330Z,59.83
2022-10-20T15:50:15.471Z,59.84
2022-10-20T15:52:42.378Z,59.87
2022-10-20T15:55:22.662Z,59.65
2022-10-20T15:57:53.553Z,59.73
2022-10-20T16:00:22.103Z,59.78
2022-10-20T16:02:49.684Z,59.96
2022-10-20T16:05:17.840Z,59.82
2022-10-20T16:07:44.196Z,59.98
2022-10-20T16:10:12.141Z,59.80
2022-10-20T16:12:39.956Z,60.14
2022-10-20T16:15:08.159Z,59.89
2022-10-20T16:17:35.457Z,59.92
2022-10-20T16:20:01.970Z,59.82
2022-10-20T16:22:28.739Z,60.06
2022-10-20T16:24:56.156Z,59.75
2022-10-20T16:27:22.946Z,59.76
2022-10-20T16:29:52.557Z,59.99
2022-10-20T16:32:18.941Z,60.20
2022-10-20T16:34:45.341Z,60.19
2022-10-20T16:37:11.857Z,60.43
2022-10-20T16:39:38.203Z,60.67
2022-10-20T16:42:04.564Z,60.83
2022-10-20T16:44:31.154Z,60.81
2022-10-20T16:46:57.916Z,60.97
2022-10-20T16:49:24.438Z,61.01
2022-10-20T16:51:51.964Z,61.12
2022-10-20T16:54:18.749Z,61.23
2022-10-20T16:56:48.953Z,61.15
2022-10-20T16:59:15.342Z,61.50
2022-10-20T17:01:41.671Z,61.63
2022-10-20T17:04:08.004Z,61.75
2022-10-20T17:06:34.361Z,61.68
2022-10-20T17:09:00.785Z,61.92
2022-10-20T17:11:29.885Z,61.91
2022-10-20T17:13:57.130Z,62.30
2022-10-20T17:16:31.963Z,61.85
2022-10-20T17:18:59.797Z,62.28
2022-10-20T17:21:27.643Z,62.30
2022-10-20T17:23:54.029Z,62.47
2022-10-20T17:26:23.911Z,62.04
2022-10-20T17:28:50.951Z,62.34
2022-10-20T17:31:18.250Z,62.48
2022-10-20T17:33:45.074Z,62.74
2022-10-20T17:36:12.723Z,62.47
2022-10-20T17:38:41.248Z,62.53
2022-10-20T17:41:15.810Z,62.30
2022-10-20T17:43:42.323Z,62.68
2022-10-20T17:46:12.398Z,62.58
2022-10-20T17:48:39.697Z,62.62
2022-10-20T17:51:12.619Z,62.62
2022-10-20T17:53:45.060Z,63.01
2022-10-20T17:56:17.008Z,62.66
2022-10-20T17:58:45.566Z,62.97
2022-10-20T18:01:18.612Z,63.04
2022-10-20T18:03:46.966Z,63.27
2022-10-20T18:06:21.723Z,63.16
2022-10-20T18:08:48.719Z,63.54
2022-10-20T18:11:17.988Z,63.26
2022-10-20T18:13:45.286Z,63.26
2022-10-20T18:16:15.027Z,63.62
2022-10-20T18:18:41.713Z,63.95
2022-10-20T18:21:11.539Z,63.83
2022-10-20T18:23:38.472Z,63.92
2022-10-20T18:26:10.873Z,63.86
2022-10-20T18:28:43.087Z,64.08
2022-10-20T18:31:14.352Z,64.22
2022-10-20T18:33:41.793Z,64.19
2022-10-20T18:36:10.929Z,64.26
2022-10-20T18:38:39.362Z,64.27
2022-10-20T18:41:08.738Z,64.69
2022-10-20T18:43:35.550Z,64.75
2022-10-20T18:46:03.581Z,64.81
2022-10-20T18:48:30.976Z,64.75
2022-10-20T18:50:59.940Z,64.78
2022-10-20T18:53:33.520Z,65.11
2022-10-20T18:56:09.174Z,64.85
2022-10-20T18:58:41.614Z,65.26
2022-10-20T19:01:11.236Z,64.97
2022-10-20T19:03:38.878Z,65.36
2022-10-20T19:06:08.734Z,65.31
2022-10-20T19:08:37.310Z,65.28
2022-10-20T19:11:09.872Z,65.25
2022-10-20T19:13:36.674Z,65.59
2022-10-20T19:16:10.851Z,65.22
2022-10-20T19:18:40.408Z,65.65
2022-10-20T19:21:08.128Z,65.42
2022-10-20T19:23:38.130Z,65.22
2022-10-20T19:26:06.324Z,65.54
2022-10-20T19:28:34.858Z,65.46
2022-10-20T19:31:01.908Z,65.74
2022-10-20T19:33:28.948Z,65.89
2022-10-20T19:35:55.387Z,65.93
2022-10-20T19:38:21.772Z,65.79
2022-10-20T19:40:48.329Z,65.79
2022-10-20T19:43:14.714Z,66.02
2022-10-20T19:45:41.067Z,65.92
2022-10-20T19:48:07.532Z,65.96
2022-10-20T19:53:03.883Z,66.11
2022-10-20T19:55:30.890Z,66.19
2022-10-20T19:57:57.447Z,65.96
2022-10-20T20:00:23.790Z,66.47
2022-10-20T20:02:50.163Z,66.30
2022-10-20T20:05:16.908Z,66.27
2022-10-20T20:07:43.397Z,66.42
2022-10-20T20:10:10.365Z,66.36
2022-10-20T20:12:36.897Z,66.36
2022-10-20T20:15:03.658Z,66.56
2022-10-20T20:17:30.204Z,66.47
2022-10-20T20:19:56.715Z,66.37
2022-10-20T20:22:23.138Z,66.51
2022-10-20T20:24:49.578Z,66.54
2022-10-20T20:27:16.134Z,66.32
2022-10-20T20:29:42.543Z,66.58
2022-10-20T20:32:08.962Z,66.50
2022-10-20T20:34:35.514Z,66.53
2022-10-20T20:37:01.941Z,66.70
2022-10-20T20:39:28.355Z,66.66
2022-10-20T20:41:54.915Z,66.93
2022-10-20T20:44:21.393Z,67.08
2022-10-20T20:46:47.932Z,66.90
2022-10-20T20:49:14.486Z,67.12
2022-10-20T20:51:40.942Z,66.96
2022-10-20T20:54:08.810Z,67.22
2022-10-20T20:56:35.262Z,67.24
2022-10-20T20:59:03.215Z,67.17
2022-10-20T21:01:31.864Z,67.10
2022-10-20T21:04:01.711Z,67.14
2022-10-20T21:06:33.831Z,67.30
2022-10-20T21:09:11.590Z,67.35
2022-10-20T21:11:40.840Z,67.86
2022-10-20T21:14:07.273Z,67.46
2022-10-20T21:16:36.734Z,67.48
2022-10-20T21:19:06.167Z,67.40
2022-10-20T21:21:35.190Z,67.50
2022-10-20T21:24:03.126Z,67.61
2022-10-20T21:26:30.210Z,67.31
2022-10-20T21:28:57.165Z,67.67
2022-10-20T21:31:26.586Z,67.47
2022-10-20T21:33:56.066Z,67.53
2022-10-20T21:36:23.581Z,67.59
2022-10-20T21:38:52.318Z,67.33
2022-10-20T21:41:24.010Z,67.44
2022-10-20T21:43:56.234Z,67.45
2022-10-20T21:46:32.871Z,67.33
2022-10-20T21:49:12.299Z,67.09
2022-10-20T21:51:43.809Z,67.22
2022-10-20T21:54:16.560Z,67.41
2022-10-20T21:56:45.060Z,67.56
2022-10-20T21:59:19.919Z,67.33
2022-10-20T22:01:48.026Z,67.57
2022-10-20T22:04:14.887Z,67.74
2022-10-20T22:06:41.452Z,67.90
2022-10-20T22:09:08.862Z,67.81
2022-10-20T22:11:39.497Z,67.63
2022-10-20T22:14:06.540Z,67.60
2022-10-20T22:16:36.567Z,67.59
2022-10-20T22:19:23.206Z,67.57
2022-10-20T22:21:51.934Z,67.52
2022-10-20T22:24:19.282Z,67.36
2022-10-20T22:26:46.115Z,67.49
2022-10-20T22:29:13.190Z,67.38
2022-10-20T22:31:40.978Z,67.44
2022-10-20T22:34:08.345Z,67.34
2022-10-20T22:36:34.793Z,67.14
2022-10-20T22:39:01.476Z,67.20
2022-10-20T22:41:27.965Z,67.10
2022-10-20T22:43:54.371Z,67.51
2022-10-20T22:46:21.199Z,67.47
2022-10-20T22:48:47.675Z,67.43
2022-10-20T22:51:14.386Z,67.73
2022-10-20T22:53:41.102Z,67.71
2022-10-20T22:56:18.211Z,67.35
2022-10-20T22:58:46.212Z,67.31
2022-10-20T23:01:16.633Z,67.72
2022-10-20T23:03:43.534Z,67.55
2022-10-20T23:06:15.690Z,67.74
2022-10-20T23:08:45.486Z,67.58
2022-10-20T23:11:12.864Z,67.72
2022-10-20T23:13:39.493Z,67.84
2022-10-20T23:16:06.482Z,67.76
2022-10-20T23:18:32.943Z,67.55
2022-10-20T23:20:59.491Z,67.86
2022-10-20T23:23:26.175Z,67.89
2022-10-20T23:25:52.932Z,67.67
2022-10-20T23:28:19.850Z,67.82
2022-10-20T23:30:46.584Z,67.93
2022-10-20T23:33:13.319Z,67.61
2022-10-20T23:35:39.855Z,67.72
2022-10-20T23:38:08.205Z,67.68
2022-10-20T23:40:35.083Z,67.81
2022-10-20T23:43:01.442Z,67.68
2022-10-20T23:45:27.756Z,67.77
2022-10-20T23:47:54.218Z,68.17
2022-10-20T23:50:23.258Z,67.62
2022-10-20T23:52:49.586Z,67.67
2022-10-20T23:55:16.057Z,67.56
2022-10-20T23:57:42.382Z,67.52
